Time;durP1;ratioP1;P1;durP2;ratioP2;P2;SDS_P1;SDS_P2;PMS_P1;PMS_P2;Temp;Humidity;BMP_temperature;BMP_pressure;BME280_temperature;BME280_humidity;BME280_pressure;Samples;Min_cycle;Max_cycle;Signal;HPM_P1;HPM_P2
2021/05/22 00:02:12;;;;;;;4.63;2.00;;;;;;;11.85;75.47;98896.09;4958011;29;20055;-63
2021/05/22 00:04:41;;;;;;;6.27;2.40;;;;;;;11.91;75.81;98906.22;4957951;29;20075;-62
2021/05/22 00:07:10;;;;;;;6.53;1.90;;;;;;;11.85;75.70;98901.22;4958015;29;20054;-62
2021/05/22 00:09:40;;;;;;;3.85;1.73;;;;;;;11.78;76.14;98909.88;4958187;29;20402;-63
2021/05/22 00:12:09;;;;;;;3.13;1.60;;;;;;;11.81;76.04;98906.41;4958407;29;20454;-62
2021/05/22 00:14:38;;;;;;;3.13;1.50;;;;;;;11.83;76.33;98892.72;4957877;29;20102;-62
2021/05/22 00:17:08;;;;;;;3.92;2.00;;;;;;;11.82;76.13;98901.28;4957732;29;20070;-62
2021/05/22 00:19:40;;;;;;;4.97;1.75;;;;;;;11.76;76.43;98895.41;4957786;29;20051;-62
2021/05/22 00:22:12;;;;;;;3.53;1.80;;;;;;;11.76;76.67;98898.81;4957730;29;20061;-62
2021/05/22 00:24:44;;;;;;;2.85;1.38;;;;;;;11.67;76.59;98901.53;4957491;29;20502;-62
2021/05/22 00:27:17;;;;;;;3.30;2.08;;;;;;;11.65;76.64;98900.72;4957672;29;20051;-62
2021/05/22 00:29:46;;;;;;;3.80;1.60;;;;;;;11.70;76.95;98875.94;4957622;29;20522;-62
2021/05/22 00:32:18;;;;;;;3.90;1.60;;;;;;;11.85;77.18;98896.09;4957499;29;20059;-62
2021/05/22 00:34:47;;;;;;;4.60;1.70;;;;;;;11.90;77.13;98893.47;4957457;29;20083;-62
2021/05/22 00:37:18;;;;;;;2.17;1.40;;;;;;;11.94;77.26;98890.84;4957326;29;20058;-62
2021/05/22 00:39:49;;;;;;;4.25;1.60;;;;;;;11.92;76.97;98897.69;4957702;29;20065;-62
2021/05/22 00:42:21;;;;;;;3.55;1.73;;;;;;;11.87;77.09;98899.50;4957704;29;20051;-62
2021/05/22 00:45:06;;;;;;;2.65;1.70;;;;;;;11.84;77.04;98889.31;4957564;29;20405;-62
2021/05/22 00:47:39;;;;;;;4.15;1.80;;;;;;;11.87;77.01;98884.16;4956356;29;20090;-62
2021/05/22 00:50:13;;;;;;;3.83;1.80;;;;;;;11.95;77.21;98878.88;4957455;29;20055;-63
2021/05/22 00:52:45;;;;;;;3.20;1.67;;;;;;;12.02;77.18;98883.84;4956913;29;20051;-62
2021/05/22 00:55:22;;;;;;;5.00;1.55;;;;;;;11.98;76.96;98877.13;4957113;29;20055;-63
2021/05/22 00:57:55;;;;;;;2.17;1.40;;;;;;;12.07;76.59;98876.94;4956824;29;20051;-62
2021/05/22 01:00:36;;;;;;;2.58;1.45;;;;;;;12.18;76.31;98878.44;4957031;29;20062;-62
2021/05/22 01:03:06;;;;;;;3.25;1.73;;;;;;;12.13;75.94;98881.09;4957598;28;20066;-62
2021/05/22 01:05:42;;;;;;;2.67;1.50;;;;;;;12.09;76.08;98882.84;4956438;28;20054;-62
2021/05/22 01:08:19;;;;;;;4.35;2.00;;;;;;;12.03;76.32;98880.44;4956882;29;20047;-62
2021/05/22 01:10:57;;;;;;;2.67;1.40;;;;;;;11.90;76.28;98888.38;4956806;29;20082;-62
2021/05/22 01:13:34;;;;;;;3.63;1.50;;;;;;;11.90;76.80;98878.16;4956781;29;20409;-62
2021/05/22 01:16:07;;;;;;;3.95;1.63;;;;;;;11.96;76.95;98883.13;4956724;29;20051;-62
2021/05/22 01:18:41;;;;;;;3.78;1.50;;;;;;;11.90;77.01;98873.84;4956446;28;20047;-62
2021/05/22 01:21:16;;;;;;;3.38;1.55;;;;;;;11.81;77.09;98874.03;4956615;29;20086;-62
2021/05/22 01:23:54;;;;;;;2.95;1.50;;;;;;;11.79;77.60;98878.31;4956618;28;20485;-62
2021/05/22 01:26:28;;;;;;;5.07;1.60;;;;;;;11.70;77.62;98875.09;4956624;29;20063;-62
2021/05/22 01:29:02;;;;;;;3.67;1.85;;;;;;;11.61;77.66;98865.88;4956487;29;20508;-62
2021/05/22 01:31:33;;;;;;;4.18;1.90;;;;;;;11.54;77.73;98860.88;4956448;29;20062;-62
2021/05/22 01:34:03;;;;;;;4.35;2.78;;;;;;;11.55;77.99;98860.84;4956677;29;20055;-62
2021/05/22 01:36:49;;;;;;;6.20;2.50;;;;;;;11.59;78.38;98854.81;4956129;29;20493;-61
2021/05/22 01:39:18;;;;;;;5.10;2.50;;;;;;;11.57;77.63;98868.47;4956324;29;20051;-62
2021/05/22 01:41:52;;;;;;;4.53;2.50;;;;;;;11.50;77.58;98862.63;4956287;29;20074;-62
2021/05/22 01:44:22;;;;;;;7.50;2.92;;;;;;;11.47;77.65;98862.69;4956154;29;20090;-62
2021/05/22 01:46:54;;;;;;;5.47;2.90;;;;;;;11.38;77.78;98862.84;4955994;29;20447;-62
2021/05/22 01:49:29;;;;;;;4.57;2.63;;;;;;;11.31;77.87;98871.50;4956206;29;20102;-62
2021/05/22 01:51:58;;;;;;;4.65;2.92;;;;;;;11.28;78.00;98866.44;4955933;29;20071;-62
2021/05/22 01:54:32;;;;;;;8.48;2.75;;;;;;;11.23;78.36;98865.66;4956133;29;20058;-62
2021/05/22 01:57:08;;;;;;;3.80;2.33;;;;;;;11.28;78.19;98868.97;4956027;29;20055;-62
2021/05/22 01:59:41;;;;;;;4.40;2.42;;;;;;;11.40;78.39;98866.22;4956111;29;20122;-62
2021/05/22 02:02:14;;;;;;;4.20;2.38;;;;;;;11.45;77.52;98874.66;4955947;29;20512;-62
2021/05/22 02:04:47;;;;;;;4.15;2.50;;;;;;;11.43;78.03;98876.41;4954781;29;20054;-63
2021/05/22 02:07:21;;;;;;;4.88;2.55;;;;;;;11.41;77.84;98868.75;4954753;29;20107;-62
2021/05/22 02:09:55;;;;;;;4.47;2.20;;;;;;;11.38;77.53;98879.03;4955871;29;20055;-62
2021/05/22 02:12:29;;;;;;;4.70;2.35;;;;;;;11.43;77.78;98876.41;4955825;29;20059;-62
2021/05/22 02:15:01;;;;;;;3.53;2.00;;;;;;;11.47;78.00;98878.00;4955879;29;20413;-62
2021/05/22 02:17:34;;;;;;;4.38;2.40;;;;;;;11.47;77.66;98883.13;4954712;28;20055;-62
2021/05/22 02:20:06;;;;;;;5.10;2.08;;;;;;;11.34;77.32;98881.66;4939019;29;20047;-62
2021/05/22 02:22:41;;;;;;;4.32;2.30;;;;;;;11.16;77.50;98869.19;4955730;29;20098;-62
2021/05/22 02:25:17;;;;;;;4.95;2.35;;;;;;;10.96;77.79;98864.41;4955943;29;20063;-62
2021/05/22 02:27:51;;;;;;;4.82;2.38;;;;;;;10.75;78.27;98864.72;4955697;29;20047;-62
2021/05/22 02:30:20;;;;;;;5.63;2.20;;;;;;;10.60;78.49;98859.84;4955668;29;20047;-62
2021/05/22 02:32:54;;;;;;;3.33;2.00;;;;;;;10.46;79.02;98856.66;4955622;29;20497;-62
2021/05/22 02:35:31;;;;;;;4.82;2.30;;;;;;;10.38;79.46;98864.41;4955920;29;20066;-62
2021/05/22 02:38:07;;;;;;;5.03;2.45;;;;;;;10.34;79.69;98862.72;4955815;29;20050;-62
2021/05/22 02:40:39;;;;;;;3.70;2.10;;;;;;;10.32;79.88;98858.53;4955590;29;20043;-62
2021/05/22 02:43:14;;;;;;;3.80;2.38;;;;;;;10.29;80.56;98854.31;4956107;29;20059;-61
2021/05/22 02:45:47;;;;;;;3.50;2.22;;;;;;;10.20;80.48;98849.31;4955476;29;20051;-62
2021/05/22 02:48:20;;;;;;;3.72;2.10;;;;;;;10.26;80.34;98848.41;4955531;29;20134;-62
2021/05/22 02:50:59;;;;;;;3.30;1.95;;;;;;;10.31;80.92;98852.59;4955763;29;20089;-62
2021/05/22 02:53:29;;;;;;;6.95;2.40;;;;;;;10.28;80.89;98857.72;4955243;29;20135;-62
2021/05/22 02:56:05;;;;;;;3.72;2.08;;;;;;;10.32;80.39;98846.59;4955460;29;20054;-62
2021/05/22 02:58:45;;;;;;;4.53;2.42;;;;;;;10.21;80.81;98837.41;4955119;29;20047;-62
2021/05/22 03:01:17;;;;;;;4.38;2.38;;;;;;;10.31;80.70;98846.63;4955447;29;20063;-62
2021/05/22 03:03:49;;;;;;;3.45;1.95;;;;;;;10.37;80.90;98842.28;4955667;29;20118;-62
2021/05/22 03:06:18;;;;;;;4.13;2.25;;;;;;;10.51;80.48;98840.38;4955253;29;20057;-62
2021/05/22 03:08:51;;;;;;;5.45;2.30;;;;;;;10.39;79.94;98835.47;4955106;29;20058;-62
2021/05/22 03:11:22;;;;;;;4.50;3.00;;;;;;;10.35;80.38;98827.88;4955312;29;20069;-62
2021/05/22 03:13:55;;;;;;;4.68;2.60;;;;;;;10.36;79.97;98825.31;4954202;29;20051;-61
2021/05/22 03:16:24;;;;;;;3.90;2.30;;;;;;;10.32;80.45;98827.94;4955540;29;20059;-62
2021/05/22 03:18:56;;;;;;;3.55;2.10;;;;;;;10.30;80.26;98839.84;4954913;29;20047;-62
2021/05/22 03:21:30;;;;;;;3.63;2.13;;;;;;;10.31;80.42;98842.38;4955197;29;20055;-62
2021/05/22 03:24:03;;;;;;;5.25;2.30;;;;;;;10.34;80.24;98856.81;4955204;29;20051;-62
2021/05/22 03:26:35;;;;;;;6.07;2.30;;;;;;;10.27;80.72;98863.66;4955187;29;20486;-62
2021/05/22 03:29:08;;;;;;;3.97;2.03;;;;;;;10.35;80.65;98884.84;4956599;28;20061;-61
2021/05/22 03:31:40;;;;;;;5.50;2.60;;;;;;;10.49;80.35;98885.50;4958918;29;20058;-61
2021/05/22 03:34:12;;;;;;;4.45;2.45;;;;;;;10.56;80.76;98869.22;4958556;29;20054;-61
2021/05/22 03:36:41;;;;;;;5.05;2.13;;;;;;;10.69;80.51;98860.56;4958830;29;20083;-62
2021/05/22 03:39:13;;;;;;;4.00;2.35;;;;;;;10.83;80.57;98851.84;4958157;29;20094;-62
2021/05/22 03:41:46;;;;;;;3.83;2.03;;;;;;;10.78;80.44;98869.78;4958443;29;20545;-62
2021/05/22 03:44:19;;;;;;;4.90;2.78;;;;;;;10.71;79.95;98874.13;4958572;29;20174;-62
2021/05/22 03:46:48;;;;;;;7.03;2.83;;;;;;;10.78;80.31;98870.63;4958577;29;20063;-62
2021/05/22 03:49:21;;;;;;;6.22;2.83;;;;;;;10.86;80.41;98877.31;4957950;29;20051;-62
2021/05/22 03:51:50;;;;;;;4.50;2.78;;;;;;;10.76;79.99;98880.03;4958370;29;20138;-62
2021/05/22 03:58:03;;;;;;;4.65;2.65;;;;;;;10.81;79.50;98879.09;4254324;27;20519;-58
2021/05/22 04:00:34;;;;;;;4.55;2.95;;;;;;;10.93;79.35;98873.81;4863842;29;20090;-58
2021/05/22 04:03:06;;;;;;;5.07;2.88;;;;;;;10.96;79.34;98854.19;4863873;29;20453;-58
2021/05/22 04:05:39;;;;;;;6.53;2.58;;;;;;;11.03;79.30;98875.38;4863887;29;20122;-58
2021/05/22 04:08:11;;;;;;;4.70;2.10;;;;;;;11.12;78.76;98865.84;4863729;29;20049;-58
2021/05/22 04:10:44;;;;;;;4.47;2.30;;;;;;;11.25;79.10;98874.97;4847296;29;20045;-59
2021/05/22 04:13:16;;;;;;;6.65;2.55;;;;;;;11.41;78.68;98878.13;4863897;29;20509;-59
2021/05/22 04:15:47;;;;;;;4.35;2.00;;;;;;;11.58;78.41;98878.69;4863680;29;20118;-58
2021/05/22 04:18:19;;;;;;;4.43;2.30;;;;;;;11.85;78.21;98865.41;4863526;29;20445;-59
2021/05/22 04:20:51;;;;;;;4.00;2.20;;;;;;;12.03;77.73;98870.19;4863527;29;20140;-59
2021/05/22 04:23:21;;;;;;;3.78;1.95;;;;;;;12.15;77.71;98883.59;4863463;29;20071;-59
2021/05/22 04:25:53;;;;;;;;;;;;;;;12.22;77.15;98886.00;4864159;29;20053;-58
2021/05/22 04:28:26;;;;;;;3.50;2.03;;;;;;;12.29;77.49;98881.59;4863402;29;19924;-59
2021/05/22 04:30:59;;;;;;;3.55;2.22;;;;;;;12.48;77.04;98893.13;4863411;29;20148;-59
2021/05/22 04:33:30;;;;;;;3.80;2.25;;;;;;;12.63;77.06;98892.81;4863312;29;20081;-59
2021/05/22 04:35:59;;;;;;;4.30;2.15;;;;;;;12.69;76.66;98901.22;4862813;29;20140;-58
2021/05/22 04:38:28;;;;;;;4.05;1.98;;;;;;;12.82;76.37;98916.31;4862931;29;20050;-58
2021/05/22 04:40:57;;;;;;;3.23;2.07;;;;;;;12.93;76.15;98916.94;4862337;29;20144;-59
2021/05/22 04:43:29;;;;;;;6.22;1.70;;;;;;;13.05;76.17;98920.03;4863097;29;20319;-59
2021/05/22 04:45:59;;;;;;;3.42;2.13;;;;;;;13.09;76.03;98913.16;4863035;29;20057;-59
2021/05/22 04:48:28;;;;;;;3.85;1.80;;;;;;;13.09;76.29;98914.00;4863330;29;20054;-59
2021/05/22 04:51:00;;;;;;;4.13;1.90;;;;;;;13.10;76.20;98905.44;4863242;29;20064;-59
2021/05/22 04:53:29;;;;;;;2.63;1.55;;;;;;;13.21;76.15;98892.38;4862906;29;20325;-58
2021/05/22 04:55:57;;;;;;;2.60;1.45;;;;;;;13.26;75.94;98893.13;4863280;29;20061;-58
2021/05/22 04:58:26;;;;;;;5.30;1.67;;;;;;;13.27;75.51;98885.38;4862167;29;20408;-59
2021/05/22 05:00:56;;;;;;;4.22;1.55;;;;;;;13.29;75.05;98888.75;4862721;29;20053;-59
2021/05/22 05:03:34;;;;;;;3.13;1.33;;;;;;;13.44;74.68;98884.97;4862643;29;20105;-58
2021/05/22 05:06:03;;;;;;;2.85;1.40;;;;;;;13.60;74.69;98885.44;4862640;29;20059;-59
2021/05/22 05:08:35;;;;;;;4.50;1.60;;;;;;;13.79;74.01;98889.19;4863156;29;20154;-59
2021/05/22 05:11:04;;;;;;;2.40;1.45;;;;;;;14.08;73.12;98887.50;4862533;29;20496;-59
2021/05/22 05:13:36;;;;;;;2.60;1.50;;;;;;;14.46;72.29;98907.03;4846361;29;20057;-59
2021/05/22 05:16:15;;;;;;;3.53;1.40;;;;;;;14.54;71.68;98914.50;4862531;29;20408;-59
2021/05/22 05:18:44;;;;;;;4.53;1.92;;;;;;;14.48;70.88;98920.66;4862264;29;20045;-58
2021/05/22 05:21:17;;;;;;;2.15;1.13;;;;;;;14.45;70.49;98927.59;4862109;29;20471;-59
2021/05/22 05:23:46;;;;;;;3.63;1.67;;;;;;;14.47;70.01;98933.50;4862416;29;20060;-59
2021/05/22 05:26:15;;;;;;;2.67;1.43;;;;;;;14.43;69.43;98943.03;4862320;29;20053;-58
2021/05/22 05:28:47;;;;;;;1.77;1.00;;;;;;;14.33;69.61;98945.91;4862600;29;20062;-58
2021/05/22 05:31:16;;;;;;;4.35;1.42;;;;;;;14.20;68.99;98947.94;4862310;29;20467;-58
2021/05/22 05:33:49;;;;;;;2.15;1.45;;;;;;;14.20;69.29;98950.50;4862218;29;20054;-59
2021/05/22 05:36:21;;;;;;;2.80;1.38;;;;;;;14.23;69.01;98949.59;4862192;29;20389;-59
2021/05/22 05:38:50;;;;;;;2.55;1.25;;;;;;;14.25;69.47;98945.25;4861793;29;20495;-58
2021/05/22 05:41:25;;;;;;;2.47;1.27;;;;;;;14.23;69.28;98935.00;4862055;29;20049;-60
2021/05/22 05:43:54;;;;;;;2.03;1.20;;;;;;;14.25;69.56;98942.69;4862043;29;20064;-60
2021/05/22 05:46:23;;;;;;;2.33;1.20;;;;;;;14.22;69.10;98959.00;4862321;29;20058;-60
2021/05/22 05:48:56;;;;;;;1.60;1.08;;;;;;;14.23;69.22;98955.53;4861994;29;20631;-60
2021/05/22 05:51:25;;;;;;;3.75;1.40;;;;;;;14.21;69.45;98952.19;4862207;29;20499;-60
2021/05/22 05:53:57;;;;;;;2.00;1.08;;;;;;;14.12;69.29;98947.31;4845334;29;20061;-59
2021/05/22 05:56:26;;;;;;;2.75;1.27;;;;;;;14.11;69.54;98950.75;4861708;29;20046;-60
2021/05/22 05:58:55;;;;;;;3.30;1.10;;;;;;;14.08;69.37;98955.97;4861648;29;20388;-60
2021/05/22 06:01:24;;;;;;;2.47;1.40;;;;;;;14.06;69.11;98955.16;4861796;29;20094;-60
2021/05/22 06:03:53;;;;;;;3.72;1.17;;;;;;;13.97;69.20;98963.94;4862035;29;20054;-59
2021/05/22 06:06:26;;;;;;;3.87;1.10;;;;;;;13.94;69.32;98958.06;4861707;29;20072;-60
2021/05/22 06:08:56;;;;;;;3.13;1.50;;;;;;;13.89;69.10;98954.78;4861707;29;20289;-59
2021/05/22 06:11:28;;;;;;;3.92;1.45;;;;;;;13.89;69.37;98957.34;4861568;29;20488;-59
2021/05/22 06:13:58;;;;;;;4.03;1.58;;;;;;;13.83;69.64;98947.22;4861643;29;20063;-59
2021/05/22 06:16:33;;;;;;;2.65;1.48;;;;;;;13.77;69.37;98955.91;4861389;29;20148;-59
2021/05/22 06:19:02;;;;;;;5.00;1.50;;;;;;;13.82;69.66;98958.38;4861259;29;20097;-59
2021/05/22 06:21:36;;;;;;;2.60;1.42;;;;;;;13.83;69.52;98955.75;4861546;29;20496;-60
2021/05/22 06:24:07;;;;;;;2.03;1.13;;;;;;;13.84;69.48;98947.19;4861474;29;20057;-59
2021/05/22 06:26:38;;;;;;;;;;;;;;;13.84;69.12;98946.34;4861714;29;20077;-59
2021/05/22 06:29:13;;;;;;;2.17;1.23;;;;;;;13.81;69.23;98941.28;4861804;29;19955;-60
2021/05/22 06:31:42;;;;;;;2.05;1.20;;;;;;;13.86;68.71;98959.97;4861761;29;20132;-60
2021/05/22 06:34:14;;;;;;;2.97;0.90;;;;;;;13.84;68.34;98966.88;4861414;29;20072;-59
2021/05/22 06:36:45;;;;;;;3.05;1.35;;;;;;;13.82;68.69;98978.91;4861353;29;20292;-59
2021/05/22 06:39:13;;;;;;;2.80;1.30;;;;;;;13.78;69.24;98982.41;4861719;29;20369;-60
2021/05/22 06:41:43;;;;;;;2.97;1.55;;;;;;;13.78;69.23;98983.25;4861359;29;20100;-59
2021/05/22 06:44:19;;;;;;;2.35;1.23;;;;;;;13.74;69.30;98994.47;4861271;29;20046;-60
2021/05/22 06:46:51;;;;;;;3.42;1.20;;;;;;;13.75;69.48;99000.44;4861461;29;20057;-59
2021/05/22 06:49:33;;;;;;;2.90;1.30;;;;;;;13.74;69.57;98996.19;4861182;29;20086;-60
2021/05/22 06:52:04;;;;;;;1.95;1.25;;;;;;;13.71;70.28;98996.25;4861222;29;20069;-59
2021/05/22 06:54:34;;;;;;;2.40;1.23;;;;;;;13.76;70.75;99004.69;4861191;29;20061;-59
2021/05/22 06:57:04;;;;;;;2.20;1.30;;;;;;;13.76;71.29;99004.69;4860718;29;20492;-60
2021/05/22 06:59:36;;;;;;;3.55;1.20;;;;;;;13.77;71.60;99014.06;4860943;29;20496;-59
2021/05/22 07:02:05;;;;;;;2.20;1.20;;;;;;;13.77;72.44;99021.75;4861240;29;20077;-59
2021/05/22 07:04:37;;;;;;;3.67;1.23;;;;;;;13.80;72.61;99026.78;4863514;29;20076;-60
2021/05/22 07:07:08;;;;;;;2.75;1.40;;;;;;;13.78;73.43;99033.69;4864851;29;20057;-60
2021/05/22 07:09:40;;;;;;;3.05;1.45;;;;;;;13.80;73.37;99027.66;4864632;29;20526;-59
2021/05/22 07:12:10;;;;;;;5.50;1.92;;;;;;;13.84;73.85;99028.44;4865272;29;20140;-59
2021/05/22 07:14:42;;;;;;;4.07;1.50;;;;;;;13.83;74.30;99026.72;4864391;29;20132;-59
2021/05/22 07:17:17;;;;;;;3.75;1.42;;;;;;;13.87;74.86;99021.47;4864644;29;20049;-60
2021/05/22 07:19:46;;;;;;;2.92;1.65;;;;;;;13.84;75.44;99028.44;4864160;29;20069;-60
2021/05/22 07:22:22;;;;;;;3.40;1.70;;;;;;;13.84;75.53;99028.44;4864452;29;20052;-60
2021/05/22 07:24:54;;;;;;;6.35;1.92;;;;;;;13.76;75.66;99020.91;4864447;29;20099;-59
2021/05/22 07:27:24;;;;;;;3.60;1.52;;;;;;;13.81;76.13;99028.50;4864609;29;20053;-60
2021/05/22 07:29:52;;;;;;;4.10;1.83;;;;;;;13.81;76.04;99025.94;4862253;29;20045;-61
2021/05/22 07:32:21;;;;;;;2.33;1.25;;;;;;;13.81;76.42;99033.63;4863222;29;20049;-61
2021/05/22 07:34:53;;;;;;;3.00;1.73;;;;;;;13.82;76.48;99037.88;4861864;29;20058;-61
2021/05/22 07:37:25;;;;;;;3.00;1.63;;;;;;;13.75;76.71;99032.03;4860970;29;20073;-60
2021/05/22 07:39:56;;;;;;;3.10;1.85;;;;;;;13.75;77.28;99033.78;4861435;29;20491;-61
2021/05/22 07:42:26;;;;;;;3.63;1.60;;;;;;;13.74;77.33;99043.19;4859830;29;20046;-61
2021/05/22 07:44:56;;;;;;;3.70;2.25;;;;;;;13.74;78.04;99042.34;4862360;29;20456;-61
2021/05/22 07:50:38;;;;;;;3.35;2.00;;;;;;;13.79;78.30;99055.91;4809375;29;20572;-62
2021/05/22 07:53:08;;;;;;;3.08;1.90;;;;;;;13.75;77.94;99062.81;4821570;29;20062;-62
2021/05/22 07:55:37;;;;;;;3.45;2.25;;;;;;;13.63;78.56;99064.84;4826345;29;20145;-62
2021/05/22 07:58:09;;;;;;;3.50;2.15;;;;;;;13.53;78.48;99079.59;4827022;29;20106;-62
2021/05/22 08:00:41;;;;;;;3.65;1.90;;;;;;;13.46;78.86;99080.56;4826480;29;20099;-62
2021/05/22 08:03:14;;;;;;;4.07;2.30;;;;;;;13.35;79.08;99073.13;4826998;29;20062;-62
2021/05/22 08:05:46;;;;;;;5.38;2.72;;;;;;;13.33;79.36;99080.03;4825815;29;20096;-62
2021/05/22 08:08:22;;;;;;;4.40;2.40;;;;;;;13.21;79.34;99082.84;4826859;29;20118;-61
2021/05/22 08:10:55;;;;;;;4.32;2.40;;;;;;;13.08;79.70;99086.53;4826893;29;20051;-61
2021/05/22 08:13:27;;;;;;;6.70;3.33;;;;;;;13.02;80.06;99084.06;4826821;29;20058;-62
2021/05/22 08:15:59;;;;;;;6.70;2.50;;;;;;;13.04;80.47;99090.00;4825707;29;20485;-62
2021/05/22 08:18:30;;;;;;;5.05;2.70;;;;;;;13.06;80.39;99080.59;4826599;29;20137;-62
2021/05/22 08:21:06;;;;;;;7.45;2.70;;;;;;;13.11;80.77;99076.22;4826422;29;20095;-62
2021/05/22 08:23:36;;;;;;;5.20;2.78;;;;;;;13.21;80.98;99076.88;4826741;29;20205;-62
2021/05/22 08:26:08;;;;;;;5.90;2.80;;;;;;;13.25;81.43;99079.34;4826884;29;20050;-62
2021/05/22 08:28:57;;;;;;;6.30;3.15;;;;;;;13.35;81.75;99075.69;4826599;29;20043;-62
2021/05/22 08:31:29;;;;;;;5.13;3.00;;;;;;;13.25;81.43;99084.47;4826562;29;20046;-62
2021/05/22 08:34:01;;;;;;;4.97;3.00;;;;;;;13.22;81.65;99089.63;4826489;29;20050;-63
2021/05/22 08:36:34;;;;;;;4.55;2.80;;;;;;;13.20;82.01;99095.66;4826521;29;20113;-62
2021/05/22 08:39:07;;;;;;;5.53;2.95;;;;;;;13.13;81.99;99092.41;4826653;29;20062;-62
2021/05/22 08:41:40;;;;;;;5.40;3.30;;;;;;;13.07;82.28;99110.47;4826731;29;20059;-62
2021/05/22 08:44:12;;;;;;;4.88;3.20;;;;;;;13.04;82.27;99114.75;4826409;29;20051;-62
2021/05/22 08:46:47;;;;;;;4.95;3.25;;;;;;;12.98;82.72;99120.03;4826412;29;20103;-62
2021/05/22 08:49:21;;;;;;;6.60;3.42;;;;;;;12.90;82.83;99121.88;4825999;29;20058;-62
2021/05/22 08:51:50;;;;;;;5.30;3.33;;;;;;;12.84;83.06;99120.25;4826552;29;20085;-62
2021/05/22 08:54:23;;;;;;;4.75;3.08;;;;;;;12.82;83.34;99124.56;4826134;29;20146;-62
2021/05/22 08:56:52;;;;;;;5.70;3.30;;;;;;;12.79;83.30;99132.31;4826145;29;20092;-62
2021/05/22 08:59:25;;;;;;;5.43;3.13;;;;;;;12.78;83.51;99128.06;4826264;29;20059;-62
2021/05/22 09:01:57;;;;;;;5.38;3.42;;;;;;;12.77;83.62;99131.50;4826148;29;20129;-63
2021/05/22 09:04:31;;;;;;;5.25;3.20;;;;;;;12.76;84.01;99129.81;4826050;29;20095;-63
2021/05/22 09:07:03;;;;;;;5.72;3.53;;;;;;;12.74;84.12;99127.28;4826013;29;20425;-63
2021/05/22 09:09:41;;;;;;;5.55;3.80;;;;;;;12.73;84.31;99125.59;4825912;29;20054;-62
2021/05/22 09:12:13;;;;;;;5.93;3.40;;;;;;;12.74;84.44;99123.91;4826286;29;20066;-62
2021/05/22 09:14:48;;;;;;;5.30;3.47;;;;;;;12.71;84.38;99131.63;4825925;29;20086;-63
2021/05/22 09:17:20;;;;;;;5.10;3.55;;;;;;;12.72;84.69;99128.16;4826227;29;20054;-63
2021/05/22 09:19:55;;;;;;;5.30;3.55;;;;;;;12.73;84.53;99129.88;4825871;29;20141;-62
2021/05/22 09:22:25;;;;;;;6.28;3.50;;;;;;;12.77;84.60;99146.88;4825780;29;20058;-63
2021/05/22 09:25:00;;;;;;;6.47;3.90;;;;;;;12.75;84.74;99146.06;4825705;29;20056;-63
2021/05/22 09:27:34;;;;;;;6.55;3.83;;;;;;;12.78;85.04;99146.84;4825679;29;20405;-62
2021/05/22 09:30:10;;;;;;;5.65;3.65;;;;;;;12.80;85.15;99157.06;4825771;29;20375;-63
2021/05/22 09:32:39;;;;;;;5.78;3.70;;;;;;;12.80;85.04;99159.63;4825951;29;20128;-63
2021/05/22 09:35:11;;;;;;;5.03;3.35;;;;;;;12.82;85.21;99165.56;4825609;29;20110;-63
2021/05/22 09:37:48;;;;;;;6.03;3.60;;;;;;;12.85;85.47;99174.91;4825469;29;20455;-62
2021/05/22 09:40:23;;;;;;;5.97;3.90;;;;;;;12.84;85.50;99179.16;4825370;29;20065;-62
2021/05/22 09:42:56;;;;;;;5.85;3.55;;;;;;;12.82;85.22;99180.91;4825586;29;20093;-63
2021/05/22 09:45:33;;;;;;;4.75;3.40;;;;;;;12.78;85.43;99179.28;4825543;29;20054;-63
2021/05/22 09:48:15;;;;;;;4.95;3.05;;;;;;;12.79;85.55;99188.66;4825605;29;20061;-63
2021/05/22 09:50:48;;;;;;;5.10;3.13;;;;;;;12.84;85.83;99189.41;4825465;29;20062;-62
2021/05/22 09:53:31;;;;;;;4.95;3.25;;;;;;;12.91;85.62;99185.88;4825215;29;20131;-63
2021/05/22 09:56:17;;;;;;;6.25;3.20;;;;;;;12.95;85.62;99187.53;4825175;29;20054;-64
2021/05/22 09:58:53;;;;;;;4.47;2.55;;;;;;;12.96;85.42;99194.31;4825317;29;20125;-63
2021/05/22 10:01:30;;;;;;;5.07;2.47;;;;;;;12.95;85.45;99196.91;4824947;29;20412;-63
2021/05/22 10:04:20;;;;;;;6.75;2.35;;;;;;;12.93;85.73;99204.63;4825262;29;20066;-63
2021/05/22 10:06:53;;;;;;;4.20;2.10;;;;;;;13.06;85.40;99201.00;4825101;29;20157;-62
2021/05/22 10:09:23;;;;;;;4.43;2.00;;;;;;;13.11;85.19;99203.47;4824128;29;20520;-62
2021/05/22 10:12:05;;;;;;;3.55;1.67;;;;;;;13.18;84.79;99205.91;4825154;29;20050;-62
2021/05/22 10:14:36;;;;;;;2.65;1.17;;;;;;;13.16;84.29;99197.41;4825133;29;20490;-63
2021/05/22 10:17:10;;;;;;;2.53;1.10;;;;;;;13.21;83.95;99203.28;4825132;29;20062;-62
2021/05/22 10:19:46;;;;;;;3.00;1.05;;;;;;;13.23;83.53;99214.34;4824921;29;20058;-62
2021/05/22 10:22:20;;;;;;;1.95;1.10;;;;;;;13.25;83.25;99217.72;4825353;29;20111;-62
2021/05/22 10:24:53;;;;;;;1.52;0.90;;;;;;;13.32;82.94;99216.72;4825002;29;20520;-62
2021/05/22 10:27:24;;;;;;;2.30;1.10;;;;;;;13.35;82.53;99218.38;4825057;29;20046;-62
2021/05/22 10:29:56;;;;;;;2.58;1.20;;;;;;;13.35;82.26;99213.25;4824940;29;20046;-62
2021/05/22 10:32:28;;;;;;;2.55;1.40;;;;;;;13.44;82.13;99208.78;4824913;29;20552;-62
2021/05/22 10:35:09;;;;;;;1.92;1.15;;;;;;;13.57;82.29;99216.25;4825249;29;20058;-62
2021/05/22 10:37:44;;;;;;;3.72;1.10;;;;;;;13.65;81.80;99217.78;4823697;29;20082;-62
2021/05/22 10:40:18;;;;;;;2.55;1.02;;;;;;;13.65;81.61;99211.81;4827182;29;20057;-61
2021/05/22 10:42:56;;;;;;;1.90;0.95;;;;;;;13.74;81.46;99207.34;4828628;29;20123;-62
2021/05/22 10:45:30;;;;;;;2.25;1.20;;;;;;;13.85;81.25;99209.66;4828661;29;20058;-62
2021/05/22 10:48:01;;;;;;;3.13;1.88;;;;;;;13.91;81.26;99219.81;4828159;29;20055;-62
2021/05/22 10:50:36;;;;;;;3.22;1.30;;;;;;;13.96;80.75;99217.97;4810004;29;20062;-62
2021/05/22 10:53:23;;;;;;;2.90;1.40;;;;;;;13.95;80.88;99222.25;4810378;29;20062;-63
2021/05/22 10:56:07;;;;;;;2.88;1.08;;;;;;;13.97;80.63;99219.66;4810279;29;20514;-63
2021/05/22 10:59:11;;;;;;;2.53;1.30;;;;;;;13.97;80.70;99204.25;4810063;29;20059;-62
2021/05/22 11:01:43;;;;;;;2.03;1.30;;;;;;;14.03;80.43;99211.84;4809756;29;20055;-63
2021/05/22 11:04:37;;;;;;;3.47;1.15;;;;;;;13.98;79.97;99216.22;4809737;29;20115;-62
2021/05/22 11:07:23;;;;;;;4.72;1.48;;;;;;;14.15;79.99;99211.56;4809583;29;20100;-62
2021/05/22 11:09:56;;;;;;;3.40;1.55;;;;;;;14.20;79.78;99217.44;4809864;29;20070;-62
2021/05/22 11:12:43;;;;;;;2.33;1.20;;;;;;;14.22;79.30;99220.81;4809598;29;20043;-62
2021/05/22 11:15:45;;;;;;;2.55;1.30;;;;;;;14.32;79.37;99232.59;4809633;29;20494;-62
2021/05/22 11:18:23;;;;;;;3.10;1.50;;;;;;;14.31;79.11;99230.91;4809723;29;20146;-62
2021/05/22 11:21:14;;;;;;;2.55;1.70;;;;;;;14.30;79.09;99224.06;4809462;29;20401;-62
2021/05/22 11:24:00;;;;;;;2.22;1.35;;;;;;;14.27;79.19;99228.41;4809629;29;20397;-62
2021/05/22 11:27:05;;;;;;;3.42;1.77;;;;;;;14.43;78.82;99229.75;4809850;29;20100;-62
2021/05/22 11:29:59;;;;;;;2.53;1.55;;;;;;;14.52;78.31;99230.38;4809562;29;20067;-62
2021/05/22 11:32:46;;;;;;;2.92;1.63;;;;;;;14.47;77.91;99232.22;4809498;29;20066;-62
2021/05/22 11:35:40;;;;;;;3.53;1.65;;;;;;;14.55;77.87;99235.47;4809691;29;20051;-62
2021/05/22 11:38:34;;;;;;;2.40;1.40;;;;;;;14.58;77.78;99240.53;4809402;29;20133;-62
2021/05/22 11:41:32;;;;;;;2.40;1.40;;;;;;;14.68;77.21;99239.41;4809236;29;20375;-62
2021/05/22 11:44:08;;;;;;;2.72;1.55;;;;;;;14.62;77.37;99233.56;4809356;29;20051;-63
2021/05/22 11:46:40;;;;;;;3.28;1.50;;;;;;;14.54;77.38;99240.66;4809252;29;20390;-62
2021/05/22 11:49:12;;;;;;;2.95;1.70;;;;;;;14.52;76.98;99240.66;4816616;29;20066;-62
2021/05/22 11:51:45;;;;;;;2.83;1.70;;;;;;;14.58;76.95;99235.41;4827489;29;20058;-62
2021/05/22 11:54:15;;;;;;;2.10;1.40;;;;;;;14.60;76.93;99222.50;4827159;29;20064;-62
2021/05/22 11:56:47;;;;;;;2.03;1.20;;;;;;;14.69;76.31;99212.00;4827166;29;20073;-62
2021/05/22 11:59:16;;;;;;;1.77;1.10;;;;;;;14.76;75.78;99211.81;4826987;29;20050;-62
2021/05/22 12:01:48;;;;;;;1.95;1.20;;;;;;;14.86;75.01;99214.13;4826787;29;20050;-62
2021/05/22 12:04:17;;;;;;;3.28;1.80;;;;;;;14.93;74.35;99211.38;4827046;29;20133;-62
2021/05/22 12:06:54;;;;;;;1.87;1.10;;;;;;;15.02;72.89;99215.44;4827032;29;20078;-62
2021/05/22 12:09:23;;;;;;;2.33;0.90;;;;;;;15.11;72.19;99210.06;4827225;29;20153;-62
2021/05/22 12:11:58;;;;;;;1.77;1.10;;;;;;;15.22;71.64;99218.31;4826567;29;20500;-62